Arrival - Weather - Departure
Ostend Airport (EBOS - OST)
This page refreshes every 5 minutes.
Contact New Style NL | EN  Best Resolution: 1280x1024

Page last updated at 10:30:11
WEER EBOS TEST PAGE WEER
The report was made at 08:20 UTC (Now: 08:30:12 UTC)
The wind blows with a force of 15 km/h and is from the south
The sight is 10 000 meter Runway n/a in use
The temperature is 13 °C The dew point is 09 °C
The humidity is 77 %
The air pressure is 1019 HPa
The weather is now Ceiling And Visibility OKay
The next two hours there is no significant change
2017/09/21 08:20 EBOS 210820Z 17008KT CAVOK 13/09 Q1019 NOSIG
METAR EBOS TAF EBOS Info METAR
© Bert Sanders

 
Interesting websites about EBOS
EBOS-Spotting
REPLO
Website airport
Other interesting websites
Spottinggroup RS06
Android app on Google Play